Terminal Aerodrome Forecast
Issued by NWS Des Moines, IA

Home | Current Version | Previous Version | Text Only | Print | Product List | Glossary On
Versions: 1 2 3 4 5 6 7 8 9 10 11 12 13 14 15 16 17 18 19 20 21 22 23 24 25 26
291
FTUS43 KDMX 210520
TAFDSM
TAF
KDSM 210520Z 2106/2206 16013KT P6SM BKN250 WS020/19040KT
     FM211400 18016G24KT P6SM SCT030 BKN080
     FM212100 19015G22KT P6SM -SHRA VCTS OVC025CB
     FM212300 20012KT 5SM SHRA VCTS OVC020CB
     FM220300 28014KT P6SM -SHRA OVC025=

USA.gov is the U.S. government's official web portal to all federal, state and local government web resources and services.